Milan, Italy
Current Conditions -  °F | °C
As of 10:20 AM on Sunday 26 Oct 2014 (Local Time) from LIML Reporting Station
Broken Clouds Broken Clouds  
Wind Chill: 54°   Ceiling: 4000
Heat Index: 54°   Visibility: 6mi
Dew Point: 46°   Wind: 5mph
Humidity: 77%   Direction: 100°E
Pressure: 30.3"   Gusts: NA
Location:  45.46°N, 9.19°E
Report Text: LIML 260820Z 10004KT 9999 BKN040 12/08 Q1026 NOSIG
Loading
Personal Weather Stations






























Interactive Weather Map New forecast layout! Learn more

10-Day Weather Forecast

Advertisements
Track Severe Weather on mobile